Tuntum, Brazil
Current Conditions -  °F | °C
As of 11:00 PM on Wednesday 26 Nov 2014 (Local Time) from SBTE Reporting Station
Broken Clouds Broken Clouds  
Wind Chill: 84°   Ceiling: 9000
Heat Index: 88°   Visibility: 6mi
Dew Point: 70°   Wind: 10mph
Humidity: 62%   Direction: 340°NNW
Pressure: 29.8"   Gusts: NA
Location:  5.26°S, 44.65°W
Report Text: SBTE 270200Z 34009KT 9999 SCT030 BKN090 29/21 Q1009
Loading
Personal Weather Stations






























Interactive Weather Map New forecast layout! Learn more

10-Day Weather Forecast

Advertisements
Track Severe Weather on mobile